createdAt,value
2023-03-10T00:02:49.745Z,22.35
2023-03-10T00:07:52.765Z,26.92
2023-03-10T00:12:55.591Z,27.45
2023-03-10T00:17:58.409Z,23.63
2023-03-10T00:23:01.105Z,27.67
2023-03-10T00:28:03.842Z,23.90
2023-03-10T00:33:06.635Z,23.27
2023-03-10T00:38:09.368Z,20.98
2023-03-10T00:43:12.114Z,20.92
2023-03-10T00:48:14.814Z,20.48
2023-03-10T00:53:17.690Z,19.52
2023-03-10T00:58:20.233Z,24.42
2023-03-10T01:03:24.275Z,21.70
2023-03-10T01:08:27.397Z,21.88
2023-03-10T01:13:30.284Z,19.45
2023-03-10T01:18:33.157Z,20.20
2023-03-10T01:23:36.131Z,18.75
2023-03-10T01:28:38.975Z,21.75
2023-03-10T01:33:43.071Z,20.50
2023-03-10T01:38:48.590Z,21.33
2023-03-10T01:43:54.409Z,22.23
2023-03-10T01:49:02.252Z,21.25
2023-03-10T01:54:09.650Z,17.70
2023-03-10T01:59:14.998Z,20.70
2023-03-10T02:04:27.311Z,16.77
2023-03-10T02:09:31.294Z,21.63
2023-03-10T02:14:36.102Z,18.08
2023-03-10T02:25:22.597Z,22.83
2023-03-10T02:35:37.365Z,19.42
2023-03-10T02:40:52.637Z,17.85
2023-03-10T02:46:03.275Z,16.90
2023-03-10T02:51:11.662Z,19.15
2023-03-10T02:56:16.595Z,18.60
2023-03-10T03:01:21.542Z,18.88
2023-03-10T03:06:24.391Z,17.73
2023-03-10T03:11:27.799Z,17.85
2023-03-10T03:16:30.761Z,21.02
2023-03-10T03:21:37.896Z,21.23
2023-03-10T03:26:40.822Z,20.23
2023-03-10T03:31:49.059Z,22.17
2023-03-10T03:36:55.559Z,23.92
2023-03-10T03:42:04.290Z,25.60
2023-03-10T03:47:14.704Z,24.23
2023-03-10T03:52:17.848Z,24.23
2023-03-10T03:57:21.658Z,23.23
2023-03-10T04:02:24.641Z,23.77
2023-03-10T04:07:28.408Z,23.38
2023-03-10T04:12:31.187Z,19.52
2023-03-10T04:17:34.877Z,20.75
2023-03-10T04:22:38.029Z,23.77
2023-03-10T04:27:42.152Z,21.38
2023-03-10T04:32:49.137Z,21.52
2023-03-10T04:37:54.106Z,23.45
2023-03-10T04:42:59.048Z,23.77
2023-03-10T04:48:02.838Z,24.77
2023-03-10T04:53:07.202Z,25.88
2023-03-10T04:58:10.094Z,24.65
2023-03-10T05:03:13.406Z,19.73
2023-03-10T05:08:16.264Z,22.08
2023-03-10T05:13:19.088Z,22.45
2023-03-10T05:18:21.981Z,19.95
2023-03-10T05:23:27.185Z,20.42
2023-03-10T05:28:30.766Z,18.98
2023-03-10T05:33:37.841Z,20.73
2023-03-10T05:38:40.802Z,19.35
2023-03-10T05:43:48.041Z,24.80
2023-03-10T05:48:53.165Z,21.65
2023-03-10T05:53:56.734Z,19.88
2023-03-10T05:59:03.829Z,22.02
2023-03-10T06:04:10.096Z,20.58
2023-03-10T06:09:12.975Z,21.15
2023-03-10T06:14:15.927Z,21.15
2023-03-10T06:19:19.667Z,25.73
2023-03-10T06:24:22.476Z,23.05
2023-03-10T06:29:25.371Z,23.45
2023-03-10T06:37:13.960Z,21.25
2023-03-10T06:42:16.741Z,20.45
2023-03-10T06:47:19.440Z,16.42
2023-03-10T06:52:23.010Z,18.92
2023-03-10T06:57:25.795Z,16.10
2023-03-10T07:02:28.664Z,22.45
2023-03-10T07:07:31.496Z,15.88
2023-03-10T07:12:34.258Z,19.48
2023-03-10T07:17:37.016Z,21.45
2023-03-10T07:22:40.794Z,21.67
2023-03-10T07:27:43.644Z,20.15
2023-03-10T07:32:46.600Z,13.52
2023-03-10T07:37:49.624Z,18.10
2023-03-10T07:42:54.986Z,16.45
2023-03-10T07:47:58.561Z,16.90
2023-03-10T07:53:01.765Z,10.90
2023-03-10T07:58:04.694Z,19.95
2023-03-10T08:03:07.556Z,17.38
2023-03-10T08:08:11.437Z,10.98
2023-03-10T08:13:15.024Z,11.95
2023-03-10T08:18:17.801Z,25.33
2023-03-10T08:23:20.599Z,11.05
2023-03-10T08:28:23.333Z,9.50
2023-03-10T08:33:28.788Z,17.90
2023-03-10T08:38:31.645Z,10.82
2023-03-10T08:43:34.629Z,15.90
2023-03-10T08:48:37.775Z,14.82
2023-03-10T08:53:40.966Z,12.98
2023-03-10T08:58:44.597Z,8.23
2023-03-10T09:03:47.346Z,9.23
2023-03-10T09:08:50.848Z,8.70
2023-03-10T09:13:53.882Z,10.13
2023-03-10T09:18:59.255Z,10.20
2023-03-10T09:24:03.040Z,8.95
2023-03-10T09:29:06.042Z,11.02
2023-03-10T09:34:11.745Z,12.27
2023-03-10T09:39:14.416Z,12.95
2023-03-10T09:54:59.241Z,8.27
2023-03-10T10:00:08.804Z,8.00
2023-03-10T10:10:42.706Z,11.85
2023-03-10T10:16:07.293Z,10.77
2023-03-10T10:21:33.520Z,6.50
2023-03-10T10:26:43.278Z,12.85
2023-03-10T10:32:06.132Z,11.50
2023-03-10T10:42:36.140Z,12.07
2023-03-10T10:47:55.915Z,9.55
2023-03-10T11:24:58.740Z,12.63
2023-03-10T11:35:29.575Z,13.45
2023-03-10T11:40:44.925Z,10.73
2023-03-10T11:45:53.045Z,15.35
2023-03-10T11:54:34.270Z,13.25
2023-03-10T11:59:47.637Z,10.95
2023-03-10T12:15:30.571Z,11.38
2023-03-10T12:20:34.310Z,11.85
2023-03-10T12:41:45.567Z,10.70
2023-03-10T12:47:15.994Z,10.68
2023-03-10T12:52:27.265Z,12.52
2023-03-10T13:08:25.621Z,13.68
2023-03-10T13:18:35.824Z,14.98
2023-03-10T13:23:38.701Z,12.50
2023-03-10T13:28:51.909Z,9.15
2023-03-10T13:33:56.420Z,14.60
2023-03-10T13:39:04.125Z,11.27
2023-03-10T13:44:16.308Z,16.27
2023-03-10T13:49:22.531Z,12.18
2023-03-10T13:54:30.029Z,12.95
2023-03-10T13:59:34.710Z,17.08
2023-03-10T14:04:42.915Z,13.60
2023-03-10T14:09:47.887Z,15.18
2023-03-10T14:14:52.066Z,17.30
2023-03-10T14:19:54.949Z,15.60
2023-03-10T14:24:59.768Z,13.20
2023-03-10T14:30:11.120Z,15.45
2023-03-10T14:35:16.490Z,20.08
2023-03-10T14:40:21.729Z,15.38
2023-03-10T14:45:35.174Z,12.25
2023-03-10T14:50:38.009Z,15.40
2023-03-10T14:55:43.105Z,18.27
2023-03-10T15:00:46.555Z,19.35
2023-03-10T15:05:50.547Z,17.52
2023-03-10T15:10:53.431Z,19.40
2023-03-10T15:15:56.451Z,17.80
2023-03-10T15:21:00.601Z,15.57
2023-03-10T15:26:09.856Z,23.48
2023-03-10T15:31:12.611Z,18.38
2023-03-10T15:36:15.679Z,18.88
2023-03-10T15:41:18.781Z,24.92
2023-03-10T15:46:21.716Z,16.20
2023-03-10T15:51:24.581Z,12.48
2023-03-10T15:56:27.394Z,26.92
2023-03-10T16:01:30.826Z,18.75
2023-03-10T16:06:34.273Z,21.48
2023-03-10T16:11:37.221Z,23.35
2023-03-10T16:16:40.373Z,25.55
2023-03-10T16:21:45.359Z,21.35
2023-03-10T16:26:49.082Z,21.27
2023-03-10T16:31:52.077Z,22.90
2023-03-10T16:36:55.852Z,26.25
2023-03-10T16:41:59.297Z,20.80
2023-03-10T16:47:03.382Z,16.17
2023-03-10T16:52:10.785Z,21.58
2023-03-10T16:57:16.190Z,26.33
2023-03-10T17:02:18.986Z,18.65
2023-03-10T17:07:21.820Z,23.27
2023-03-10T17:12:24.664Z,23.92
2023-03-10T17:17:30.099Z,23.17
2023-03-10T17:22:33.517Z,20.00
2023-03-10T17:27:36.362Z,24.23
2023-03-10T18:03:32.685Z,22.27
2023-03-10T18:08:35.709Z,24.45
2023-03-10T18:13:40.569Z,24.70
2023-03-10T18:18:43.659Z,24.13
2023-03-10T18:23:49.710Z,20.52
2023-03-10T18:28:52.511Z,23.45
2023-03-10T18:33:55.801Z,22.48
2023-03-10T18:38:59.762Z,20.52
2023-03-10T18:44:02.917Z,25.08
2023-03-10T18:49:05.852Z,21.67
2023-03-10T18:54:10.255Z,24.58
2023-03-10T18:59:14.002Z,25.95
2023-03-10T19:04:17.039Z,25.58
2023-03-10T19:09:20.483Z,29.38
2023-03-10T19:14:24.112Z,23.25
2023-03-10T19:19:28.597Z,28.63
2023-03-10T19:29:33.859Z,29.73
2023-03-10T19:34:36.677Z,27.35
2023-03-10T19:39:39.415Z,29.95
2023-03-10T19:44:43.183Z,28.98
2023-03-10T19:49:46.101Z,29.90
2023-03-10T19:54:48.923Z,31.35
2023-03-10T19:59:52.152Z,32.00
2023-03-10T20:04:55.240Z,28.63
2023-03-10T20:09:57.954Z,27.50
2023-03-10T20:15:01.425Z,25.23
2023-03-10T20:20:10.855Z,28.55
2023-03-10T20:25:17.570Z,25.55
2023-03-10T20:30:23.836Z,25.85
2023-03-10T20:35:28.650Z,28.42
2023-03-10T20:40:31.322Z,30.25
2023-03-10T20:45:34.928Z,29.08
2023-03-10T20:50:37.527Z,32.03
2023-03-10T20:55:41.706Z,28.40
2023-03-10T21:00:47.791Z,31.25
2023-03-10T21:05:50.645Z,31.50
2023-03-10T21:10:53.242Z,27.30
2023-03-10T21:15:55.875Z,29.50
2023-03-10T21:20:58.725Z,30.95
2023-03-10T21:26:01.326Z,29.58
2023-03-10T21:31:04.671Z,32.92
2023-03-10T21:36:08.746Z,33.13
2023-03-10T21:41:15.188Z,31.17
2023-03-10T21:46:17.941Z,35.35
2023-03-10T21:51:23.710Z,34.35
2023-03-10T21:56:28.869Z,31.50
2023-03-10T22:01:31.656Z,31.83
2023-03-10T22:06:34.527Z,31.55
2023-03-10T22:11:37.733Z,30.52
2023-03-10T22:16:40.413Z,34.53
2023-03-10T22:21:42.996Z,37.10
2023-03-10T22:26:45.536Z,42.00
2023-03-10T22:31:50.549Z,40.35
2023-03-10T22:36:53.177Z,43.10
2023-03-10T22:41:55.860Z,38.10
2023-03-10T22:46:58.582Z,35.50
2023-03-10T22:52:02.737Z,35.40
2023-03-10T22:57:05.626Z,38.78
2023-03-10T23:02:08.368Z,35.30
2023-03-10T23:07:11.394Z,41.85
2023-03-10T23:12:13.951Z,36.80
2023-03-10T23:17:16.539Z,36.85
2023-03-10T23:22:19.130Z,41.65
2023-03-10T23:27:21.687Z,43.40
2023-03-10T23:32:24.269Z,39.47
2023-03-10T23:37:26.855Z,36.40
2023-03-10T23:42:29.421Z,42.65
2023-03-10T23:47:34.690Z,37.17
2023-03-10T23:52:37.301Z,37.65
2023-03-10T23:57:39.828Z,36.72
